Time;durP1;ratioP1;P1;durP2;ratioP2;P2;SDS_P1;SDS_P2;PMS_P1;PMS_P2;Temp;Humidity;BMP_temperature;BMP_pressure;BME280_temperature;BME280_humidity;BME280_pressure;Samples;Min_cycle;Max_cycle;Signal;HPM_P1;HPM_P2
2024/02/28 00:01:50;;;;;;;3.08;1.80;;;21.10;51.40;;;;;;5078423;28;20035;-62
2024/02/28 00:04:16;;;;;;;3.30;2.05;;;21.10;51.40;;;;;;5077402;28;20490;-61
2024/02/28 00:06:42;;;;;;;3.15;2.10;;;21.10;51.40;;;;;;5078602;28;20103;-62
2024/02/28 00:09:07;;;;;;;2.63;1.83;;;21.10;51.40;;;;;;5076483;28;20389;-62
2024/02/28 00:11:33;;;;;;;3.00;2.00;;;21.10;51.40;;;;;;5078802;28;20035;-61
2024/02/28 00:14:02;;;;;;;3.03;1.95;;;21.10;51.40;;;;;;5078741;28;20556;-61
2024/02/28 00:16:28;;;;;;;2.80;1.85;;;21.10;51.40;;;;;;5077251;28;20029;-62
2024/02/28 00:18:54;;;;;;;4.05;2.20;;;21.10;51.40;;;;;;5079063;28;20052;-62
2024/02/28 00:21:19;;;;;;;2.92;1.77;;;21.10;51.40;;;;;;5080443;28;20115;-63
2024/02/28 00:23:45;;;;;;;3.17;1.98;;;21.10;51.40;;;;;;5079639;28;20107;-61
2024/02/28 00:26:12;;;;;;;2.75;1.98;;;21.10;51.50;;;;;;5079896;28;20445;-63
2024/02/28 00:28:37;;;;;;;2.90;2.13;;;21.10;51.40;;;;;;5077223;28;20023;-62
2024/02/28 00:31:03;;;;;;;2.80;2.00;;;21.10;51.40;;;;;;5080213;28;20032;-61
2024/02/28 00:33:29;;;;;;;2.72;1.85;;;21.10;51.40;;;;;;5079029;28;20024;-62
2024/02/28 00:35:54;;;;;;;2.53;1.80;;;21.10;51.50;;;;;;5081300;28;20523;-62
2024/02/28 00:38:20;;;;;;;2.55;1.80;;;21.00;51.40;;;;;;5078903;28;20099;-62
2024/02/28 00:40:46;;;;;;;3.05;2.00;;;21.00;51.40;;;;;;5064454;28;20035;-61
2024/02/28 00:43:11;;;;;;;2.95;2.05;;;21.00;51.40;;;;;;5082717;28;20101;-61
2024/02/28 00:45:37;;;;;;;3.20;2.00;;;21.00;51.40;;;;;;5082103;28;20027;-61
2024/02/28 00:48:03;;;;;;;2.78;1.95;;;21.00;51.40;;;;;;5083082;28;20579;-62
2024/02/28 00:50:28;;;;;;;2.95;1.92;;;21.00;51.40;;;;;;5080187;28;20034;-62
2024/02/28 00:52:54;;;;;;;2.80;1.92;;;21.00;51.40;;;;;;5080974;28;20028;-61
2024/02/28 00:55:19;;;;;;;2.83;2.10;;;21.00;51.40;;;;;;5083236;28;20028;-63
2024/02/28 00:57:45;;;;;;;2.70;1.98;;;21.00;51.40;;;;;;5079810;28;20086;-62
2024/02/28 01:00:11;;;;;;;2.38;1.80;;;21.00;51.40;;;;;;5081019;28;20032;-61
2024/02/28 01:02:37;;;;;;;2.72;2.00;;;21.00;51.50;;;;;;5081492;28;20027;-62
2024/02/28 01:05:03;;;;;;;2.80;1.90;;;21.00;51.40;;;;;;5082705;28;20028;-61
2024/02/28 01:07:28;;;;;;;2.78;1.70;;;21.00;51.50;;;;;;5081604;28;20031;-62
2024/02/28 01:09:54;;;;;;;2.60;1.90;;;21.00;51.50;;;;;;5081715;28;20063;-62
2024/02/28 01:12:19;;;;;;;2.90;2.20;;;21.00;51.50;;;;;;5081437;28;20030;-63
2024/02/28 01:14:45;;;;;;;2.65;1.98;;;21.00;51.50;;;;;;5081202;28;20051;-62
2024/02/28 01:17:11;;;;;;;2.67;1.80;;;21.00;51.40;;;;;;5082503;28;20027;-62
2024/02/28 01:19:36;;;;;;;2.72;1.90;;;21.00;51.50;;;;;;5081973;28;20040;-61
2024/02/28 01:22:02;;;;;;;2.78;1.90;;;20.90;51.40;;;;;;5064912;28;20024;-62
2024/02/28 01:24:27;;;;;;;2.50;1.90;;;20.90;51.40;;;;;;5079551;28;20419;-61
2024/02/28 01:26:53;;;;;;;3.08;2.00;;;20.90;51.40;;;;;;5081640;28;20032;-63
2024/02/28 01:29:19;;;;;;;2.80;1.85;;;20.90;51.40;;;;;;5082419;28;20024;-62
2024/02/28 01:31:44;;;;;;;2.50;1.92;;;20.90;51.40;;;;;;5080659;28;20024;-62
2024/02/28 01:34:10;;;;;;;3.03;1.90;;;20.90;51.50;;;;;;5080703;28;20024;-61
2024/02/28 01:36:35;;;;;;;2.97;1.80;;;20.90;51.40;;;;;;5080082;28;20438;-62
2024/02/28 01:39:01;;;;;;;2.70;1.88;;;20.90;51.50;;;;;;5078151;28;20114;-62
2024/02/28 01:41:27;;;;;;;2.67;1.88;;;20.90;51.50;;;;;;5080893;28;20020;-61
2024/02/28 01:43:53;;;;;;;2.70;2.00;;;20.90;51.50;;;;;;5081194;28;20036;-62
2024/02/28 01:46:24;;;;;;;3.55;2.10;;;20.90;51.50;;;;;;5081837;28;20376;-61
2024/02/28 01:48:50;;;;;;;2.90;2.10;;;20.90;51.50;;;;;;5079353;28;20039;-62
2024/02/28 01:51:16;;;;;;;2.80;2.20;;;20.90;51.80;;;;;;5081959;28;20407;-62
2024/02/28 01:53:42;;;;;;;3.10;2.10;;;20.90;51.50;;;;;;5078086;28;20115;-62
2024/02/28 01:56:08;;;;;;;3.05;2.10;;;20.90;51.50;;;;;;5081266;28;20107;-62
2024/02/28 01:58:34;;;;;;;3.10;2.25;;;20.90;51.50;;;;;;5080395;28;20112;-62
2024/02/28 02:01:03;;;;;;;2.95;2.17;;;20.90;51.50;;;;;;5081704;28;20025;-62
2024/02/28 02:03:28;;;;;;;2.97;2.20;;;20.90;51.50;;;;;;5078264;28;20587;-61
2024/02/28 02:05:54;;;;;;;2.88;2.05;;;20.80;51.50;;;;;;5077547;28;20107;-62
2024/02/28 02:08:22;;;;;;;3.00;2.22;;;20.90;51.50;;;;;;5079298;28;20538;-62
2024/02/28 02:10:48;;;;;;;2.58;1.80;;;20.80;51.50;;;;;;5082751;28;20051;-61
2024/02/28 02:13:13;;;;;;;2.88;1.95;;;20.90;51.50;;;;;;5081266;28;20062;-62
2024/02/28 02:15:41;;;;;;;3.10;2.25;;;20.90;51.50;;;;;;5081257;28;20028;-62
2024/02/28 02:18:06;;;;;;;3.60;2.40;;;20.80;51.50;;;;;;5079283;28;20024;-62
2024/02/28 02:20:36;;;;;;;2.60;1.90;;;20.80;51.50;;;;;;5080244;28;20546;-61
2024/02/28 02:23:01;;;;;;;;;;;20.80;51.50;;;;;;5079927;28;20032;-63
2024/02/28 02:25:27;;;;;;;2.75;1.98;;;20.80;51.50;;;;;;5080230;28;19952;-63
2024/02/28 02:27:53;;;;;;;2.75;2.03;;;20.80;51.50;;;;;;5078559;28;20045;-64
2024/02/28 02:30:18;;;;;;;2.97;2.17;;;20.80;51.50;;;;;;5079892;28;20400;-63
2024/02/28 02:32:44;;;;;;;2.85;2.00;;;20.80;51.50;;;;;;5080131;28;20111;-64
2024/02/28 02:35:09;;;;;;;3.08;2.10;;;20.80;51.50;;;;;;5081527;28;20085;-64
2024/02/28 02:37:35;;;;;;;2.95;2.10;;;20.70;51.40;;;;;;5079115;28;20107;-64
2024/02/28 02:40:01;;;;;;;2.70;1.95;;;20.80;51.50;;;;;;5078597;28;20097;-64
2024/02/28 02:42:26;;;;;;;3.20;2.33;;;20.80;51.50;;;;;;5080809;28;20024;-63
2024/02/28 02:44:52;;;;;;;3.00;2.00;;;20.80;51.50;;;;;;5080669;28;20535;-63
2024/02/28 02:47:17;;;;;;;2.95;2.20;;;20.70;51.50;;;;;;5078999;28;20060;-63
2024/02/28 02:49:43;;;;;;;2.88;2.08;;;20.70;51.50;;;;;;5079260;28;20060;-63
2024/02/28 02:52:09;;;;;;;3.03;2.13;;;20.80;51.60;;;;;;5079067;28;20021;-64
2024/02/28 02:54:34;;;;;;;2.90;2.10;;;20.80;51.60;;;;;;5078573;28;20396;-63
2024/02/28 02:57:00;;;;;;;2.70;1.98;;;20.70;51.50;;;;;;5081371;28;20028;-63
2024/02/28 02:59:25;;;;;;;3.30;2.05;;;20.80;51.60;;;;;;5078609;28;20031;-63
2024/02/28 03:01:52;;;;;;;3.08;2.10;;;20.70;51.50;;;;;;5080058;28;20020;-64
2024/02/28 03:04:17;;;;;;;2.95;2.10;;;20.70;51.50;;;;;;5092853;28;20036;-63
2024/02/28 03:06:43;;;;;;;2.75;2.03;;;20.70;51.50;;;;;;5080916;28;20032;-63
2024/02/28 03:09:09;;;;;;;3.20;2.33;;;20.70;51.50;;;;;;5077873;28;20123;-64
2024/02/28 03:11:38;;;;;;;3.10;2.10;;;20.70;51.50;;;;;;5080547;28;20032;-63
2024/02/28 03:14:03;;;;;;;3.80;2.55;;;20.70;51.60;;;;;;5080154;28;20039;-63
2024/02/28 03:16:29;;;;;;;2.90;2.10;;;20.70;51.50;;;;;;5079284;28;20393;-63
2024/02/28 03:18:55;;;;;;;2.80;2.00;;;20.70;51.50;;;;;;5077204;28;20062;-63
2024/02/28 03:21:21;;;;;;;2.85;2.22;;;20.70;51.60;;;;;;5078368;28;20036;-64
2024/02/28 03:23:46;;;;;;;3.22;2.20;;;20.70;51.50;;;;;;5079112;28;20107;-61
2024/02/28 03:26:12;;;;;;;2.97;2.08;;;20.70;51.60;;;;;;5079755;28;20021;-61
2024/02/28 03:28:38;;;;;;;3.00;2.25;;;20.70;51.60;;;;;;5080496;28;20028;-62
2024/02/28 03:31:03;;;;;;;3.10;2.30;;;20.70;51.60;;;;;;5079935;28;20032;-62
2024/02/28 03:33:31;;;;;;;2.80;2.28;;;20.70;51.60;;;;;;5078281;28;20540;-62
2024/02/28 03:35:57;;;;;;;3.20;2.30;;;20.70;52.10;;;;;;5075934;28;20020;-61
2024/02/28 03:38:22;;;;;;;3.25;2.28;;;20.70;51.60;;;;;;5077261;28;20035;-63
2024/02/28 03:40:48;;;;;;;3.53;2.03;;;20.70;51.60;;;;;;5077152;28;20071;-62
2024/02/28 03:43:13;;;;;;;2.85;1.90;;;20.70;51.60;;;;;;5080404;28;20032;-62
2024/02/28 03:45:39;;;;;;;2.35;1.85;;;20.70;51.60;;;;;;5057417;28;20024;-62
2024/02/28 03:48:05;;;;;;;2.63;2.08;;;20.60;51.50;;;;;;5076828;28;20472;-62
2024/02/28 03:50:31;;;;;;;3.05;2.30;;;20.60;51.50;;;;;;5075675;28;20031;-61
2024/02/28 03:52:56;;;;;;;3.08;2.08;;;20.60;51.50;;;;;;5076637;28;20133;-61
2024/02/28 03:55:22;;;;;;;2.60;1.90;;;20.70;51.60;;;;;;5076107;28;20432;-63
2024/02/28 03:57:51;;;;;;;3.17;2.10;;;20.60;51.60;;;;;;5079459;28;20082;-61
2024/02/28 04:00:17;;;;;;;2.75;2.00;;;20.60;51.60;;;;;;5061759;28;20025;-62
2024/02/28 04:02:43;;;;;;;2.70;2.00;;;20.60;51.60;;;;;;5077739;28;20040;-62
2024/02/28 04:05:09;;;;;;;3.55;2.22;;;20.60;51.60;;;;;;5079164;28;20036;-62
2024/02/28 04:07:35;;;;;;;2.70;2.13;;;20.60;51.60;;;;;;5079354;28;20021;-61
2024/02/28 04:10:00;;;;;;;2.85;2.10;;;20.60;51.60;;;;;;5074946;28;20075;-62
2024/02/28 04:12:26;;;;;;;2.75;2.15;;;20.60;51.60;;;;;;5079372;28;20034;-61
2024/02/28 04:14:52;;;;;;;3.85;2.28;;;20.60;51.60;;;;;;5078553;28;20024;-62
2024/02/28 04:17:17;;;;;;;3.10;2.00;;;20.60;51.60;;;;;;5079014;28;20071;-62
2024/02/28 04:19:43;;;;;;;2.55;1.90;;;20.60;51.60;;;;;;5079135;28;20040;-61
2024/02/28 04:22:08;;;;;;;2.83;2.17;;;20.60;51.60;;;;;;5079687;28;20051;-62
2024/02/28 04:24:35;;;;;;;2.85;1.90;;;20.60;51.60;;;;;;5077962;28;20028;-61
2024/02/28 04:27:02;;;;;;;2.58;2.00;;;20.60;51.60;;;;;;5077723;28;20392;-61
2024/02/28 04:29:28;;;;;;;3.00;1.95;;;20.60;51.60;;;;;;5078651;28;20046;-62
2024/02/28 04:31:54;;;;;;;2.78;2.08;;;20.60;51.60;;;;;;5079903;28;20071;-61
2024/02/28 04:34:19;;;;;;;2.53;1.77;;;20.60;51.60;;;;;;5079138;28;20044;-62
2024/02/28 04:36:45;;;;;;;2.83;2.10;;;20.60;51.70;;;;;;5078677;28;20119;-62
2024/02/28 04:39:10;;;;;;;3.00;1.98;;;20.50;51.60;;;;;;5077002;28;20031;-63
2024/02/28 04:41:36;;;;;;;3.35;2.28;;;20.60;51.60;;;;;;5080377;28;20064;-62
2024/02/28 04:44:02;;;;;;;2.63;1.98;;;20.60;51.60;;;;;;5077669;28;20369;-62
2024/02/28 04:46:28;;;;;;;2.92;2.20;;;20.60;51.60;;;;;;5077672;28;20031;-62
2024/02/28 04:48:53;;;;;;;2.90;2.10;;;20.60;51.60;;;;;;5076347;28;20040;-61
2024/02/28 04:51:19;;;;;;;2.75;1.80;;;20.60;51.60;;;;;;5081051;28;20111;-61
2024/02/28 04:53:45;;;;;;;2.63;1.98;;;20.60;51.60;;;;;;5078570;28;20538;-61
2024/02/28 04:56:11;;;;;;;2.85;2.00;;;20.60;51.70;;;;;;5077172;28;20503;-60
2024/02/28 04:58:37;;;;;;;2.75;2.00;;;20.50;51.60;;;;;;5078149;28;20021;-61
2024/02/28 05:01:03;;;;;;;3.00;2.30;;;20.50;51.60;;;;;;5079423;28;20396;-62
2024/02/28 05:03:28;;;;;;;2.72;1.83;;;20.50;51.60;;;;;;5079912;28;20032;-62
2024/02/28 05:05:54;;;;;;;2.72;2.00;;;20.50;51.60;;;;;;5076738;28;20029;-62
2024/02/28 05:08:20;;;;;;;2.65;1.83;;;20.50;51.60;;;;;;5078529;28;20412;-61
2024/02/28 05:10:46;;;;;;;2.40;2.00;;;20.50;51.60;;;;;;5077675;28;20024;-61
2024/02/28 05:13:12;;;;;;;2.58;1.98;;;20.50;51.60;;;;;;5078136;28;20052;-61
2024/02/28 05:15:38;;;;;;;2.63;2.00;;;20.50;51.60;;;;;;5078756;28;20033;-62
2024/02/28 05:18:04;;;;;;;2.90;2.03;;;20.50;51.60;;;;;;5078693;28;20063;-61
2024/02/28 05:20:29;;;;;;;3.05;2.08;;;20.50;52.10;;;;;;5078539;28;20082;-62
2024/02/28 05:22:55;;;;;;;2.60;2.08;;;20.50;51.60;;;;;;5064732;28;20832;-61
2024/02/28 05:25:21;;;;;;;3.00;2.28;;;20.50;51.60;;;;;;5079210;28;20024;-62
2024/02/28 05:27:46;;;;;;;2.40;1.90;;;20.50;51.60;;;;;;5080052;28;20029;-61
2024/02/28 05:30:12;;;;;;;2.70;2.10;;;20.50;51.60;;;;;;5082431;28;20108;-61
2024/02/28 05:32:38;;;;;;;3.33;1.90;;;20.50;51.70;;;;;;5078795;28;20037;-62
2024/02/28 05:35:04;;;;;;;2.95;2.03;;;20.50;51.70;;;;;;5080603;28;20032;-61
2024/02/28 05:37:29;;;;;;;2.88;2.10;;;20.50;51.70;;;;;;5080956;28;20484;-62
2024/02/28 05:39:55;;;;;;;2.72;2.00;;;20.50;51.70;;;;;;5079783;28;20027;-62
2024/02/28 05:42:24;;;;;;;2.83;1.98;;;20.50;51.70;;;;;;5081336;28;20468;-61
2024/02/28 05:44:50;;;;;;;2.92;2.25;;;20.50;51.70;;;;;;5081234;28;20028;-64
2024/02/28 05:47:16;;;;;;;2.50;1.90;;;20.50;51.70;;;;;;5080552;28;20025;-63
2024/02/28 05:49:42;;;;;;;3.15;1.98;;;20.50;51.70;;;;;;5063166;28;20429;-64
2024/02/28 05:52:07;;;;;;;3.15;2.10;;;20.50;51.70;;;;;;5080797;28;20025;-64
2024/02/28 05:54:36;;;;;;;2.80;1.98;;;20.50;51.70;;;;;;5081252;28;20034;-61
2024/02/28 05:57:01;;;;;;;2.80;2.10;;;20.50;51.70;;;;;;5079071;28;20086;-62
2024/02/28 05:59:27;;;;;;;3.00;1.90;;;20.50;51.80;;;;;;5081260;28;20587;-61
2024/02/28 06:01:53;;;;;;;2.58;2.00;;;20.50;51.80;;;;;;5078719;28;20385;-62
2024/02/28 06:04:19;;;;;;;3.08;2.10;;;20.40;51.80;;;;;;5082174;28;20488;-61
2024/02/28 06:06:44;;;;;;;2.45;1.85;;;20.50;51.90;;;;;;5080658;28;20108;-61
2024/02/28 06:09:10;;;;;;;2.70;1.95;;;20.50;51.80;;;;;;5082101;28;20480;-61
2024/02/28 06:11:36;;;;;;;3.17;2.00;;;20.40;51.80;;;;;;5079317;28;20417;-61
2024/02/28 06:14:03;;;;;;;2.97;2.22;;;20.50;51.90;;;;;;5081647;28;20028;-61
2024/02/28 06:16:29;;;;;;;3.17;2.13;;;20.50;52.00;;;;;;5081918;28;20037;-62
2024/02/28 06:18:55;;;;;;;2.60;1.85;;;20.50;52.20;;;;;;5081208;28;20043;-61
2024/02/28 06:21:23;;;;;;;3.15;2.25;;;20.40;52.20;;;;;;5081633;28;20497;-60
2024/02/28 06:23:49;;;;;;;2.70;2.25;;;20.50;52.20;;;;;;5079951;28;20028;-62
2024/02/28 06:26:16;;;;;;;3.35;2.00;;;20.50;52.20;;;;;;5079016;28;20456;-61
2024/02/28 06:28:45;;;;;;;3.15;2.00;;;20.50;52.20;;;;;;5079584;28;20123;-62
2024/02/28 06:31:17;;;;;;;3.10;2.10;;;20.40;52.10;;;;;;5080927;28;20063;-61
2024/02/28 06:33:44;;;;;;;3.15;2.20;;;20.40;52.10;;;;;;5080832;28;20035;-61
2024/02/28 06:36:09;;;;;;;3.35;1.95;;;20.40;52.10;;;;;;5082090;28;20453;-61
2024/02/28 06:38:35;;;;;;;2.60;1.90;;;20.40;52.10;;;;;;5080300;28;20025;-61
2024/02/28 06:41:05;;;;;;;2.60;1.90;;;20.40;52.10;;;;;;5077717;28;20438;-62
2024/02/28 06:43:33;;;;;;;;;;;20.40;52.10;;;;;;5080995;28;20020;-62
2024/02/28 06:45:58;;;;;;;2.75;2.03;;;20.40;52.10;;;;;;5078956;28;19908;-61
2024/02/28 06:48:24;;;;;;;3.28;2.20;;;20.40;52.10;;;;;;5079456;28;20082;-62
2024/02/28 06:50:49;;;;;;;2.80;1.95;;;20.40;52.10;;;;;;5079394;28;20063;-60
2024/02/28 06:53:15;;;;;;;3.55;2.08;;;20.40;52.10;;;;;;5079848;28;20570;-61
2024/02/28 06:55:41;;;;;;;2.47;1.95;;;20.40;52.10;;;;;;5079187;28;20106;-60
2024/02/28 06:58:06;;;;;;;3.28;2.15;;;20.40;52.10;;;;;;5081392;28;20074;-61
2024/02/28 07:00:32;;;;;;;3.10;2.03;;;20.40;52.60;;;;;;5080340;28;20051;-61
2024/02/28 07:02:57;;;;;;;3.28;2.00;;;20.40;52.10;;;;;;5079875;28;20035;-64
2024/02/28 07:05:24;;;;;;;3.10;2.00;;;20.40;52.60;;;;;;5081474;28;20026;-64
2024/02/28 07:07:49;;;;;;;4.15;2.40;;;20.40;52.10;;;;;;5081056;28;20502;-64
2024/02/28 07:10:15;;;;;;;3.35;2.05;;;20.40;52.10;;;;;;5078672;28;20029;-63
2024/02/28 07:12:40;;;;;;;3.75;2.20;;;20.40;52.10;;;;;;5078174;28;20373;-64
2024/02/28 07:15:06;;;;;;;3.60;2.20;;;20.40;52.10;;;;;;5081534;28;20025;-64
2024/02/28 07:17:32;;;;;;;4.53;2.30;;;20.40;52.10;;;;;;5080000;28;20032;-64
2024/02/28 07:19:57;;;;;;;3.53;2.30;;;20.40;52.10;;;;;;5080914;28;20044;-64
2024/02/28 07:22:23;;;;;;;3.80;2.40;;;20.40;52.10;;;;;;5080857;28;20043;-64
2024/02/28 07:24:49;;;;;;;3.53;2.17;;;20.40;52.10;;;;;;5080252;28;20028;-65
2024/02/28 07:27:15;;;;;;;3.00;2.22;;;20.40;52.10;;;;;;5075911;28;20503;-65
2024/02/28 07:29:41;;;;;;;2.72;2.00;;;20.40;52.10;;;;;;5078733;28;20016;-64
2024/02/28 07:32:07;;;;;;;3.58;2.28;;;20.40;52.20;;;;;;5079367;28;20153;-64
2024/02/28 07:34:33;;;;;;;3.30;2.30;;;20.40;52.20;;;;;;5079743;28;20644;-64
2024/02/28 07:36:59;;;;;;;3.05;2.25;;;20.40;52.20;;;;;;5081008;28;20032;-64
2024/02/28 07:39:25;;;;;;;3.90;2.30;;;20.40;52.20;;;;;;5078277;28;20025;-64
2024/02/28 07:41:51;;;;;;;4.93;2.33;;;20.40;52.20;;;;;;5079096;28;20032;-64
2024/02/28 07:44:16;;;;;;;3.38;2.05;;;20.40;52.20;;;;;;5077995;28;20024;-64
2024/02/28 07:46:42;;;;;;;5.00;2.30;;;20.40;52.20;;;;;;5078464;28;20043;-64
2024/02/28 07:49:08;;;;;;;4.10;2.17;;;20.40;52.20;;;;;;5079377;28;20381;-64
2024/02/28 07:51:33;;;;;;;3.30;2.08;;;20.40;52.20;;;;;;5077254;28;20415;-64
2024/02/28 07:53:59;;;;;;;5.05;2.40;;;20.40;52.20;;;;;;5079367;28;20804;-64
2024/02/28 07:56:25;;;;;;;4.30;2.25;;;20.40;52.20;;;;;;5077099;28;20441;-64
2024/02/28 07:58:50;;;;;;;3.80;2.40;;;20.40;52.20;;;;;;5079888;28;20115;-64
2024/02/28 08:01:16;;;;;;;3.20;2.10;;;20.40;52.20;;;;;;5075621;28;20034;-64
2024/02/28 08:03:42;;;;;;;4.30;2.20;;;20.40;52.20;;;;;;5078698;28;20025;-63
2024/02/28 08:06:08;;;;;;;4.10;2.42;;;20.40;52.20;;;;;;5079968;28;20422;-63
2024/02/28 08:08:35;;;;;;;4.60;2.30;;;20.30;52.20;;;;;;5058035;28;20089;-63
2024/02/28 08:11:00;;;;;;;3.42;2.38;;;20.40;52.30;;;;;;5078787;28;21108;-64
2024/02/28 08:13:28;;;;;;;3.60;2.30;;;20.40;52.30;;;;;;5077372;28;20111;-62
2024/02/28 08:15:54;;;;;;;3.63;2.05;;;20.40;52.30;;;;;;5078914;28;20036;-61
2024/02/28 08:18:19;;;;;;;4.88;2.17;;;20.30;52.20;;;;;;5079401;28;20058;-61
2024/02/28 08:20:45;;;;;;;4.25;2.40;;;20.40;52.20;;;;;;5080353;28;20027;-62
2024/02/28 08:23:11;;;;;;;3.15;2.00;;;20.30;52.20;;;;;;5079093;28;20028;-62
2024/02/28 08:25:37;;;;;;;4.32;2.42;;;20.30;52.20;;;;;;5078494;28;20055;-61
2024/02/28 08:28:03;;;;;;;3.63;2.63;;;20.30;52.20;;;;;;5080295;28;20035;-60
2024/02/28 08:30:29;;;;;;;4.05;2.63;;;20.30;52.20;;;;;;5078768;28;20381;-60
2024/02/28 08:32:54;;;;;;;3.97;2.58;;;20.30;52.20;;;;;;5080887;28;20044;-62
2024/02/28 08:35:20;;;;;;;3.10;2.13;;;20.30;52.20;;;;;;5078706;28;20036;-61
2024/02/28 08:37:46;;;;;;;3.35;2.20;;;20.30;52.20;;;;;;5079844;28;20024;-61
2024/02/28 08:40:12;;;;;;;3.78;2.40;;;20.30;52.20;;;;;;5079903;28;20046;-62
2024/02/28 08:42:38;;;;;;;3.67;2.30;;;20.30;52.20;;;;;;5076758;28;20103;-60
2024/02/28 08:45:05;;;;;;;3.58;2.50;;;20.30;52.20;;;;;;5078523;28;20425;-61
2024/02/28 08:47:31;;;;;;;5.72;2.45;;;20.30;52.20;;;;;;5076896;28;20488;-62
2024/02/28 08:49:57;;;;;;;3.17;2.20;;;20.30;52.20;;;;;;5077924;28;20024;-61
2024/02/28 08:52:23;;;;;;;3.70;2.63;;;20.30;52.20;;;;;;5076414;28;20075;-61
2024/02/28 08:54:48;;;;;;;4.35;2.50;;;20.30;52.20;;;;;;5078327;28;20103;-61
2024/02/28 08:57:15;;;;;;;4.10;2.35;;;20.30;52.30;;;;;;5080009;28;20056;-61
2024/02/28 08:59:40;;;;;;;3.00;2.20;;;20.30;52.20;;;;;;5083354;28;20029;-61
2024/02/28 09:02:07;;;;;;;3.03;2.20;;;20.30;52.30;;;;;;5082937;28;20082;-62
2024/02/28 09:04:33;;;;;;;3.47;2.30;;;20.30;52.30;;;;;;5081865;28;20032;-61
2024/02/28 09:06:59;;;;;;;4.22;2.58;;;20.30;52.30;;;;;;5082956;28;20032;-62
2024/02/28 09:09:24;;;;;;;3.80;2.60;;;20.30;52.30;;;;;;5083645;28;20032;-61
2024/02/28 09:11:50;;;;;;;3.55;2.20;;;20.30;52.30;;;;;;5078308;28;20108;-61
2024/02/28 09:14:15;;;;;;;3.70;2.38;;;20.30;52.30;;;;;;5065371;28;20032;-61
2024/02/28 09:16:41;;;;;;;3.67;2.47;;;20.30;52.30;;;;;;5079013;28;20055;-61
2024/02/28 09:19:07;;;;;;;4.18;2.50;;;20.30;52.30;;;;;;5080508;28;20094;-61
2024/02/28 09:21:32;;;;;;;3.33;2.35;;;20.30;52.30;;;;;;5081217;28;20063;-61
2024/02/28 09:23:58;;;;;;;3.58;2.55;;;20.30;52.80;;;;;;5081115;28;20397;-61
2024/02/28 09:26:23;;;;;;;3.22;2.10;;;20.30;52.20;;;;;;5080695;28;20036;-62
2024/02/28 09:28:49;;;;;;;3.42;2.20;;;20.30;52.30;;;;;;5081333;28;20024;-61
2024/02/28 09:31:17;;;;;;;2.88;2.10;;;20.30;52.30;;;;;;5080440;28;20029;-61
2024/02/28 09:33:46;;;;;;;3.15;2.28;;;20.30;52.30;;;;;;5081199;28;20545;-61
2024/02/28 09:36:12;;;;;;;3.65;2.40;;;20.30;52.30;;;;;;5081903;28;20059;-63
2024/02/28 09:38:37;;;;;;;4.07;2.50;;;20.30;52.30;;;;;;5081058;28;20500;-61
2024/02/28 09:41:03;;;;;;;3.25;2.22;;;20.30;52.30;;;;;;5081156;28;20053;-62
2024/02/28 09:43:37;;;;;;;3.50;2.20;;;20.30;52.30;;;;;;5078949;28;20097;-62
2024/02/28 09:46:11;;;;;;;3.95;2.58;;;20.30;52.30;;;;;;5082473;28;20055;-62
2024/02/28 09:48:39;;;;;;;3.67;2.10;;;20.30;52.30;;;;;;5082282;28;20096;-61
2024/02/28 09:51:06;;;;;;;3.55;2.30;;;20.30;52.30;;;;;;5081492;28;20111;-61
2024/02/28 09:53:31;;;;;;;4.07;2.20;;;20.30;52.30;;;;;;5080054;28;20032;-62
2024/02/28 09:55:57;;;;;;;4.28;2.60;;;20.30;52.30;;;;;;5079836;28;20031;-62
2024/02/28 09:58:23;;;;;;;3.90;2.60;;;20.30;52.30;;;;;;5081402;28;20063;-61
2024/02/28 10:00:49;;;;;;;3.33;2.38;;;20.30;52.30;;;;;;5082129;28;20461;-61
2024/02/28 10:03:18;;;;;;;3.85;2.50;;;20.30;52.80;;;;;;5080138;28;20130;-60
2024/02/28 10:05:46;;;;;;;3.85;2.40;;;20.30;52.30;;;;;;5081353;28;20025;-61
2024/02/28 10:08:13;;;;;;;3.20;2.25;;;20.30;52.30;;;;;;5076480;28;20090;-62
2024/02/28 10:10:38;;;;;;;3.13;2.17;;;20.30;52.30;;;;;;5081690;28;20025;-60
2024/02/28 10:13:04;;;;;;;4.03;2.50;;;20.30;52.30;;;;;;5078698;28;20024;-61
2024/02/28 10:15:31;;;;;;;3.50;2.30;;;20.30;52.30;;;;;;5083715;28;20077;-60
2024/02/28 10:17:56;;;;;;;3.95;2.35;;;20.30;52.30;;;;;;5080775;28;20024;-61
2024/02/28 10:20:22;;;;;;;3.33;2.30;;;20.30;52.30;;;;;;5079420;28;20499;-61
2024/02/28 10:22:48;;;;;;;3.40;2.22;;;20.30;52.30;;;;;;5079920;28;20024;-62
2024/02/28 10:25:13;;;;;;;3.00;2.10;;;20.30;52.30;;;;;;5079472;28;20024;-63
2024/02/28 10:27:41;;;;;;;3.22;2.33;;;20.30;52.30;;;;;;5079393;28;20016;-64
2024/02/28 10:30:07;;;;;;;3.33;2.30;;;20.30;52.30;;;;;;5080898;28;20481;-63
2024/02/28 10:32:38;;;;;;;3.38;2.22;;;20.30;52.30;;;;;;5079920;28;20039;-64
2024/02/28 10:35:06;;;;;;;3.33;2.40;;;20.30;52.30;;;;;;5079923;28;20565;-61
2024/02/28 10:37:32;;;;;;;3.67;2.53;;;20.20;52.30;;;;;;5079970;28;20077;-61
2024/02/28 10:39:58;;;;;;;3.67;2.20;;;20.30;52.30;;;;;;5077687;28;20032;-61
2024/02/28 10:42:29;;;;;;;3.88;2.60;;;20.30;52.30;;;;;;5080088;28;20036;-61
2024/02/28 10:44:58;;;;;;;4.20;2.65;;;20.30;52.30;;;;;;5081605;28;20606;-60
2024/02/28 10:47:25;;;;;;;3.75;2.60;;;20.30;52.30;;;;;;5080667;28;20032;-62
2024/02/28 10:49:51;;;;;;;3.55;2.53;;;20.30;52.30;;;;;;5081847;28;20437;-61
2024/02/28 10:52:21;;;;;;;3.30;2.65;;;20.30;52.30;;;;;;5078310;28;20036;-61
2024/02/28 10:54:54;;;;;;;3.13;2.28;;;20.30;52.30;;;;;;5079224;28;20031;-61
2024/02/28 10:57:21;;;;;;;3.53;2.40;;;20.30;52.30;;;;;;5074921;28;20035;-61
2024/02/28 10:59:47;;;;;;;3.30;2.20;;;20.30;52.40;;;;;;5082460;28;20113;-60
2024/02/28 11:02:13;;;;;;;4.05;2.50;;;20.30;52.30;;;;;;5079040;28;20036;-62
2024/02/28 11:04:39;;;;;;;3.80;2.42;;;20.30;52.30;;;;;;5080936;28;20028;-61
2024/02/28 11:07:06;;;;;;;3.50;2.30;;;20.30;52.30;;;;;;5079488;28;20020;-60
2024/02/28 11:09:32;;;;;;;3.20;2.47;;;20.30;52.30;;;;;;5080123;28;20025;-61
2024/02/28 11:11:58;;;;;;;3.25;2.25;;;20.30;52.30;;;;;;5078697;28;20016;-62
2024/02/28 11:14:26;;;;;;;3.53;2.38;;;20.30;52.40;;;;;;5079516;28;20395;-62
2024/02/28 11:17:03;;;;;;;3.47;2.42;;;20.30;52.30;;;;;;5080333;28;20484;-62
2024/02/28 11:19:32;;;;;;;3.35;2.45;;;20.30;52.30;;;;;;5079352;28;20044;-62
2024/02/28 11:21:59;;;;;;;3.95;2.50;;;20.20;52.30;;;;;;5079433;28;20020;-62
2024/02/28 11:24:30;;;;;;;3.30;2.40;;;20.30;52.40;;;;;;5080271;28;20037;-61
2024/02/28 11:26:56;;;;;;;3.90;2.83;;;20.30;52.30;;;;;;5079518;28;20431;-62
2024/02/28 11:29:26;;;;;;;3.92;2.50;;;20.30;52.40;;;;;;5077847;28;20028;-61
2024/02/28 11:31:53;;;;;;;3.40;2.42;;;20.20;52.40;;;;;;5078784;28;20141;-60
2024/02/28 11:34:19;;;;;;;4.18;2.83;;;20.20;52.40;;;;;;5082254;28;20032;-64
2024/02/28 11:36:49;;;;;;;5.07;2.97;;;20.20;52.40;;;;;;5078877;28;20111;-64
2024/02/28 11:39:15;;;;;;;3.90;2.70;;;20.30;52.40;;;;;;5077572;28;20040;-65
2024/02/28 11:41:41;;;;;;;4.43;2.90;;;20.30;52.40;;;;;;5079816;28;20030;-64
2024/02/28 11:44:07;;;;;;;3.50;2.65;;;20.20;52.40;;;;;;5076467;28;20032;-63
2024/02/28 11:46:33;;;;;;;3.80;2.67;;;20.20;52.40;;;;;;5078173;28;20054;-63
2024/02/28 11:49:00;;;;;;;3.97;2.70;;;20.20;52.40;;;;;;5081303;28;20021;-63
2024/02/28 11:51:26;;;;;;;3.85;3.03;;;20.20;52.40;;;;;;5077983;28;20519;-63
2024/02/28 11:53:51;;;;;;;3.58;2.67;;;20.20;52.40;;;;;;5078726;28;20024;-64
2024/02/28 11:56:21;;;;;;;3.85;2.80;;;20.20;52.40;;;;;;5077002;28;20059;-63
2024/02/28 11:58:53;;;;;;;3.78;2.63;;;20.20;52.40;;;;;;5077827;28;20046;-63
2024/02/28 12:01:38;;;;;;;3.88;2.67;;;20.20;52.40;;;;;;5077053;28;20063;-64
2024/02/28 12:04:07;;;;;;;3.90;2.70;;;20.20;52.40;;;;;;5077553;28;20028;-63
2024/02/28 12:06:34;;;;;;;4.18;2.83;;;20.20;52.40;;;;;;5077310;28;20062;-63
2024/02/28 12:09:00;;;;;;;4.18;2.92;;;20.20;52.40;;;;;;5077355;28;20110;-63
2024/02/28 12:11:29;;;;;;;4.97;2.97;;;20.20;52.40;;;;;;5078308;28;20515;-63
2024/02/28 12:13:55;;;;;;;3.75;2.90;;;20.20;52.40;;;;;;5078556;28;20051;-63
2024/02/28 12:16:27;;;;;;;3.95;2.55;;;20.20;52.40;;;;;;5079164;28;20091;-64
2024/02/28 12:18:53;;;;;;;4.13;2.60;;;20.20;52.40;;;;;;5077954;28;20439;-63
2024/02/28 12:21:20;;;;;;;4.55;2.70;;;20.20;52.50;;;;;;5078460;28;20192;-63
2024/02/28 12:23:48;;;;;;;4.63;2.97;;;20.20;52.40;;;;;;5079413;28;20427;-63
2024/02/28 12:26:14;;;;;;;3.90;3.08;;;20.20;52.50;;;;;;5077359;28;20021;-64
2024/02/28 12:28:39;;;;;;;4.13;2.75;;;20.20;52.50;;;;;;5075597;28;20352;-63
2024/02/28 12:31:08;;;;;;;5.55;2.67;;;20.20;52.40;;;;;;5077741;28;20102;-63
2024/02/28 12:33:34;;;;;;;3.80;2.65;;;20.20;52.40;;;;;;5082293;28;20471;-63
2024/02/28 12:36:03;;;;;;;3.70;2.60;;;20.20;52.50;;;;;;5083986;28;20207;-64
2024/02/28 12:38:28;;;;;;;3.58;2.63;;;20.20;52.50;;;;;;5097557;28;20492;-63
2024/02/28 12:40:54;;;;;;;4.63;2.78;;;20.20;52.50;;;;;;5082692;28;20058;-64
2024/02/28 12:43:20;;;;;;;5.07;2.70;;;20.20;52.50;;;;;;5081463;28;20075;-65